sensor_id;sensor_type;location;lat;lon;timestamp;temperature;humidity
59469;DHT22;45277;52.768;18.262;2023-02-19T00:01:09;3.60;99.90
59469;DHT22;45277;52.768;18.262;2023-02-19T00:02:48;3.60;99.90
59469;DHT22;45277;52.768;18.262;2023-02-19T00:04:21;3.60;99.90
59469;DHT22;45277;52.768;18.262;2023-02-19T00:05:53;3.60;99.90
59469;DHT22;45277;52.768;18.262;2023-02-19T00:07:25;3.60;99.90
59469;DHT22;45277;52.768;18.262;2023-02-19T00:08:56;3.70;99.90
59469;DHT22;45277;52.768;18.262;2023-02-19T00:10:28;3.70;99.90
59469;DHT22;45277;52.768;18.262;2023-02-19T00:12:00;3.70;99.90
59469;DHT22;45277;52.768;18.262;2023-02-19T00:13:35;3.70;99.90
59469;DHT22;45277;52.768;18.262;2023-02-19T00:15:07;3.70;99.90
59469;DHT22;45277;52.768;18.262;2023-02-19T00:16:39;3.60;99.90
59469;DHT22;45277;52.768;18.262;2023-02-19T00:18:10;3.70;99.90
59469;DHT22;45277;52.768;18.262;2023-02-19T00:19:41;3.60;99.90
59469;DHT22;45277;52.768;18.262;2023-02-19T00:21:14;3.60;99.90
59469;DHT22;45277;52.768;18.262;2023-02-19T00:22:45;3.60;99.90
59469;DHT22;45277;52.768;18.262;2023-02-19T00:24:17;3.70;99.90
59469;DHT22;45277;52.768;18.262;2023-02-19T00:25:49;3.60;99.90
59469;DHT22;45277;52.768;18.262;2023-02-19T00:27:20;3.70;99.90
59469;DHT22;45277;52.768;18.262;2023-02-19T00:28:53;3.70;99.90
59469;DHT22;45277;52.768;18.262;2023-02-19T00:30:25;3.70;99.90
59469;DHT22;45277;52.768;18.262;2023-02-19T00:31:56;3.70;99.90
59469;DHT22;45277;52.768;18.262;2023-02-19T00:33:27;3.60;99.90
59469;DHT22;45277;52.768;18.262;2023-02-19T00:34:59;3.60;99.90
59469;DHT22;45277;52.768;18.262;2023-02-19T00:36:32;3.60;99.90
59469;DHT22;45277;52.768;18.262;2023-02-19T00:38:05;3.60;99.90
59469;DHT22;45277;52.768;18.262;2023-02-19T00:39:37;3.60;99.90
59469;DHT22;45277;52.768;18.262;2023-02-19T00:41:10;3.60;99.90
59469;DHT22;45277;52.768;18.262;2023-02-19T00:42:52;3.60;99.90
59469;DHT22;45277;52.768;18.262;2023-02-19T00:44:23;3.60;99.90
59469;DHT22;45277;52.768;18.262;2023-02-19T00:45:55;3.70;99.90
59469;DHT22;45277;52.768;18.262;2023-02-19T00:47:26;3.70;99.90
59469;DHT22;45277;52.768;18.262;2023-02-19T00:48:58;3.60;99.90
59469;DHT22;45277;52.768;18.262;2023-02-19T00:50:30;3.60;99.90
59469;DHT22;45277;52.768;18.262;2023-02-19T00:52:01;3.60;99.90
59469;DHT22;45277;52.768;18.262;2023-02-19T00:53:33;3.60;99.90
59469;DHT22;45277;52.768;18.262;2023-02-19T00:55:05;3.60;99.90
59469;DHT22;45277;52.768;18.262;2023-02-19T00:56:36;3.60;99.90
59469;DHT22;45277;52.768;18.262;2023-02-19T00:58:07;3.60;99.90
59469;DHT22;45277;52.768;18.262;2023-02-19T00:59:39;3.60;99.90
59469;DHT22;45277;52.768;18.262;2023-02-19T01:01:10;3.60;99.90
59469;DHT22;45277;52.768;18.262;2023-02-19T01:02:42;3.60;99.90
59469;DHT22;45277;52.768;18.262;2023-02-19T01:04:13;3.60;99.90
59469;DHT22;45277;52.768;18.262;2023-02-19T01:05:47;3.60;99.90
59469;DHT22;45277;52.768;18.262;2023-02-19T01:07:19;3.60;99.90
59469;DHT22;45277;52.768;18.262;2023-02-19T01:08:50;3.60;99.90
59469;DHT22;45277;52.768;18.262;2023-02-19T01:10:21;3.70;99.90
59469;DHT22;45277;52.768;18.262;2023-02-19T01:11:53;3.60;99.90
59469;DHT22;45277;52.768;18.262;2023-02-19T01:13:25;3.60;99.90
59469;DHT22;45277;52.768;18.262;2023-02-19T01:14:58;3.60;99.90
59469;DHT22;45277;52.768;18.262;2023-02-19T01:16:30;3.60;99.90
59469;DHT22;45277;52.768;18.262;2023-02-19T01:18:02;3.60;99.90
59469;DHT22;45277;52.768;18.262;2023-02-19T01:19:33;3.60;99.90
59469;DHT22;45277;52.768;18.262;2023-02-19T01:21:06;3.60;99.90
59469;DHT22;45277;52.768;18.262;2023-02-19T01:22:38;3.50;99.90
59469;DHT22;45277;52.768;18.262;2023-02-19T01:24:09;3.50;99.90
59469;DHT22;45277;52.768;18.262;2023-02-19T01:25:41;3.50;99.90
59469;DHT22;45277;52.768;18.262;2023-02-19T01:27:13;3.50;99.90
59469;DHT22;45277;52.768;18.262;2023-02-19T01:28:44;3.50;99.90
59469;DHT22;45277;52.768;18.262;2023-02-19T01:30:16;3.50;99.90
59469;DHT22;45277;52.768;18.262;2023-02-19T01:31:48;3.50;99.90
59469;DHT22;45277;52.768;18.262;2023-02-19T01:33:19;3.50;99.90
59469;DHT22;45277;52.768;18.262;2023-02-19T01:34:51;3.40;99.90
59469;DHT22;45277;52.768;18.262;2023-02-19T01:36:23;3.40;99.90
59469;DHT22;45277;52.768;18.262;2023-02-19T01:37:54;3.40;99.90
59469;DHT22;45277;52.768;18.262;2023-02-19T01:39:26;3.40;99.90
59469;DHT22;45277;52.768;18.262;2023-02-19T01:41:00;3.40;99.90
59469;DHT22;45277;52.768;18.262;2023-02-19T01:42:31;3.40;99.90
59469;DHT22;45277;52.768;18.262;2023-02-19T01:45:44;3.40;99.90
59469;DHT22;45277;52.768;18.262;2023-02-19T01:47:17;3.40;99.90
59469;DHT22;45277;52.768;18.262;2023-02-19T01:48:49;3.40;99.90
59469;DHT22;45277;52.768;18.262;2023-02-19T01:50:21;3.40;99.90
59469;DHT22;45277;52.768;18.262;2023-02-19T01:52:09;3.40;99.90
59469;DHT22;45277;52.768;18.262;2023-02-19T01:53:49;3.30;99.90
59469;DHT22;45277;52.768;18.262;2023-02-19T01:55:22;3.20;99.90
59469;DHT22;45277;52.768;18.262;2023-02-19T01:56:54;3.10;99.90
59469;DHT22;45277;52.768;18.262;2023-02-19T01:58:30;3.00;99.90
59469;DHT22;45277;52.768;18.262;2023-02-19T02:00:07;3.10;99.90
59469;DHT22;45277;52.768;18.262;2023-02-19T02:01:40;3.00;99.90
59469;DHT22;45277;52.768;18.262;2023-02-19T02:03:12;3.00;99.90
59469;DHT22;45277;52.768;18.262;2023-02-19T02:04:43;3.00;99.90
59469;DHT22;45277;52.768;18.262;2023-02-19T02:07:49;3.00;99.90
59469;DHT22;45277;52.768;18.262;2023-02-19T02:09:39;3.10;99.90
59469;DHT22;45277;52.768;18.262;2023-02-19T02:11:29;3.10;99.90
59469;DHT22;45277;52.768;18.262;2023-02-19T02:13:01;3.10;99.90
59469;DHT22;45277;52.768;18.262;2023-02-19T02:14:35;3.10;99.90
59469;DHT22;45277;52.768;18.262;2023-02-19T02:16:16;3.10;99.90
59469;DHT22;45277;52.768;18.262;2023-02-19T02:18:15;3.10;99.90
59469;DHT22;45277;52.768;18.262;2023-02-19T02:20:07;3.10;99.90
59469;DHT22;45277;52.768;18.262;2023-02-19T02:30:40;3.10;99.90
59469;DHT22;45277;52.768;18.262;2023-02-19T02:32:20;3.10;99.90
59469;DHT22;45277;52.768;18.262;2023-02-19T02:34:22;3.10;99.90
59469;DHT22;45277;52.768;18.262;2023-02-19T02:36:00;3.10;99.90
59469;DHT22;45277;52.768;18.262;2023-02-19T02:37:36;3.10;99.90
59469;DHT22;45277;52.768;18.262;2023-02-19T02:39:11;3.10;99.90
59469;DHT22;45277;52.768;18.262;2023-02-19T02:40:44;3.00;99.90
59469;DHT22;45277;52.768;18.262;2023-02-19T02:42:16;3.00;99.90
59469;DHT22;45277;52.768;18.262;2023-02-19T02:44:00;3.00;99.90
59469;DHT22;45277;52.768;18.262;2023-02-19T02:45:32;3.00;99.90
59469;DHT22;45277;52.768;18.262;2023-02-19T02:47:07;3.00;99.90
59469;DHT22;45277;52.768;18.262;2023-02-19T02:49:04;3.00;99.90
59469;DHT22;45277;52.768;18.262;2023-02-19T02:52:32;3.00;99.90
59469;DHT22;45277;52.768;18.262;2023-02-19T02:54:31;2.90;99.90
59469;DHT22;45277;52.768;18.262;2023-02-19T02:56:23;3.00;99.90
59469;DHT22;45277;52.768;18.262;2023-02-19T02:57:55;2.90;99.90
59469;DHT22;45277;52.768;18.262;2023-02-19T02:59:32;2.90;99.90
59469;DHT22;45277;52.768;18.262;2023-02-19T03:01:09;2.90;99.90
59469;DHT22;45277;52.768;18.262;2023-02-19T03:02:59;2.90;99.90
59469;DHT22;45277;52.768;18.262;2023-02-19T03:04:43;2.90;99.90
59469;DHT22;45277;52.768;18.262;2023-02-19T03:06:35;2.90;99.90
59469;DHT22;45277;52.768;18.262;2023-02-19T03:08:14;2.80;99.90
59469;DHT22;45277;52.768;18.262;2023-02-19T03:09:47;2.90;99.90
59469;DHT22;45277;52.768;18.262;2023-02-19T03:11:19;2.80;99.90
59469;DHT22;45277;52.768;18.262;2023-02-19T03:13:36;2.80;99.90
59469;DHT22;45277;52.768;18.262;2023-02-19T03:15:31;2.80;99.90
59469;DHT22;45277;52.768;18.262;2023-02-19T03:17:41;2.80;99.90
59469;DHT22;45277;52.768;18.262;2023-02-19T03:19:41;2.80;99.90
59469;DHT22;45277;52.768;18.262;2023-02-19T03:21:16;2.80;99.90
59469;DHT22;45277;52.768;18.262;2023-02-19T03:22:51;2.80;99.90
59469;DHT22;45277;52.768;18.262;2023-02-19T03:24:27;2.80;99.90
59469;DHT22;45277;52.768;18.262;2023-02-19T03:26:19;2.90;99.90
59469;DHT22;45277;52.768;18.262;2023-02-19T03:27:51;2.90;99.90
59469;DHT22;45277;52.768;18.262;2023-02-19T03:29:29;2.80;99.90
59469;DHT22;45277;52.768;18.262;2023-02-19T03:31:02;2.80;99.90
59469;DHT22;45277;52.768;18.262;2023-02-19T03:32:39;2.90;99.90
59469;DHT22;45277;52.768;18.262;2023-02-19T03:34:19;2.80;99.90
59469;DHT22;45277;52.768;18.262;2023-02-19T03:35:59;2.80;99.90
59469;DHT22;45277;52.768;18.262;2023-02-19T03:37:40;2.90;99.90
59469;DHT22;45277;52.768;18.262;2023-02-19T03:39:13;2.90;99.90
59469;DHT22;45277;52.768;18.262;2023-02-19T03:44:44;2.90;99.90
59469;DHT22;45277;52.768;18.262;2023-02-19T03:46:22;2.90;99.90
59469;DHT22;45277;52.768;18.262;2023-02-19T03:48:26;2.90;99.90
59469;DHT22;45277;52.768;18.262;2023-02-19T03:53:52;2.90;99.90
59469;DHT22;45277;52.768;18.262;2023-02-19T03:55:53;2.80;99.90
59469;DHT22;45277;52.768;18.262;2023-02-19T03:57:46;2.70;99.90
59469;DHT22;45277;52.768;18.262;2023-02-19T03:59:29;2.80;99.90
59469;DHT22;45277;52.768;18.262;2023-02-19T04:02:55;2.80;99.90
59469;DHT22;45277;52.768;18.262;2023-02-19T04:04:32;2.80;99.90
59469;DHT22;45277;52.768;18.262;2023-02-19T04:06:10;2.80;99.90
59469;DHT22;45277;52.768;18.262;2023-02-19T04:07:45;2.80;99.90
59469;DHT22;45277;52.768;18.262;2023-02-19T04:09:20;2.80;99.90
59469;DHT22;45277;52.768;18.262;2023-02-19T04:10:52;2.80;99.90
59469;DHT22;45277;52.768;18.262;2023-02-19T04:12:26;2.80;99.90
59469;DHT22;45277;52.768;18.262;2023-02-19T04:14:18;2.80;99.90
59469;DHT22;45277;52.768;18.262;2023-02-19T04:15:52;2.80;99.90
59469;DHT22;45277;52.768;18.262;2023-02-19T04:17:38;2.80;99.90
59469;DHT22;45277;52.768;18.262;2023-02-19T04:19:13;2.80;99.90
59469;DHT22;45277;52.768;18.262;2023-02-19T04:20:47;2.80;99.90
59469;DHT22;45277;52.768;18.262;2023-02-19T04:22:19;2.90;99.90
59469;DHT22;45277;52.768;18.262;2023-02-19T04:23:52;2.80;99.90
59469;DHT22;45277;52.768;18.262;2023-02-19T04:25:25;2.90;99.90
59469;DHT22;45277;52.768;18.262;2023-02-19T04:26:58;2.90;99.90
59469;DHT22;45277;52.768;18.262;2023-02-19T04:28:30;2.90;99.90
59469;DHT22;45277;52.768;18.262;2023-02-19T04:30:01;2.90;99.90
59469;DHT22;45277;52.768;18.262;2023-02-19T04:31:34;2.90;99.90
59469;DHT22;45277;52.768;18.262;2023-02-19T04:33:06;2.80;99.90
59469;DHT22;45277;52.768;18.262;2023-02-19T04:34:37;2.90;99.90
59469;DHT22;45277;52.768;18.262;2023-02-19T04:36:10;2.90;99.90
59469;DHT22;45277;52.768;18.262;2023-02-19T04:37:41;2.90;99.90
59469;DHT22;45277;52.768;18.262;2023-02-19T04:39:13;2.90;99.90
59469;DHT22;45277;52.768;18.262;2023-02-19T04:40:45;2.90;99.90
59469;DHT22;45277;52.768;18.262;2023-02-19T04:42:17;2.90;99.90
59469;DHT22;45277;52.768;18.262;2023-02-19T04:43:48;2.90;99.90
59469;DHT22;45277;52.768;18.262;2023-02-19T04:45:20;2.90;99.90
59469;DHT22;45277;52.768;18.262;2023-02-19T04:46:51;3.00;99.90
59469;DHT22;45277;52.768;18.262;2023-02-19T04:48:22;3.00;99.90
59469;DHT22;45277;52.768;18.262;2023-02-19T04:49:54;2.90;99.90
59469;DHT22;45277;52.768;18.262;2023-02-19T04:51:25;2.90;99.90
59469;DHT22;45277;52.768;18.262;2023-02-19T04:52:56;2.90;99.90
59469;DHT22;45277;52.768;18.262;2023-02-19T04:54:28;3.00;99.90
59469;DHT22;45277;52.768;18.262;2023-02-19T04:56:11;2.90;99.90
59469;DHT22;45277;52.768;18.262;2023-02-19T04:57:42;2.90;99.90
59469;DHT22;45277;52.768;18.262;2023-02-19T04:59:14;2.90;99.90
59469;DHT22;45277;52.768;18.262;2023-02-19T05:00:45;2.90;99.90
59469;DHT22;45277;52.768;18.262;2023-02-19T05:02:17;2.90;99.90
59469;DHT22;45277;52.768;18.262;2023-02-19T05:03:48;3.00;99.90
59469;DHT22;45277;52.768;18.262;2023-02-19T05:05:20;2.90;99.90
59469;DHT22;45277;52.768;18.262;2023-02-19T05:06:51;2.90;99.90
59469;DHT22;45277;52.768;18.262;2023-02-19T05:08:23;2.90;99.90
59469;DHT22;45277;52.768;18.262;2023-02-19T05:09:54;2.90;99.90
59469;DHT22;45277;52.768;18.262;2023-02-19T05:11:26;2.90;99.90
59469;DHT22;45277;52.768;18.262;2023-02-19T05:12:57;2.90;99.90
59469;DHT22;45277;52.768;18.262;2023-02-19T05:14:29;2.90;99.90
59469;DHT22;45277;52.768;18.262;2023-02-19T05:16:03;2.90;99.90
59469;DHT22;45277;52.768;18.262;2023-02-19T05:17:35;2.90;99.90
59469;DHT22;45277;52.768;18.262;2023-02-19T05:19:06;2.90;99.90
59469;DHT22;45277;52.768;18.262;2023-02-19T05:20:37;2.90;99.90
59469;DHT22;45277;52.768;18.262;2023-02-19T05:22:09;2.90;99.90
59469;DHT22;45277;52.768;18.262;2023-02-19T05:23:40;2.90;99.90
59469;DHT22;45277;52.768;18.262;2023-02-19T05:25:12;2.90;99.90
59469;DHT22;45277;52.768;18.262;2023-02-19T05:26:43;2.80;99.90
59469;DHT22;45277;52.768;18.262;2023-02-19T05:28:15;2.80;99.90
59469;DHT22;45277;52.768;18.262;2023-02-19T05:29:46;2.80;99.90
59469;DHT22;45277;52.768;18.262;2023-02-19T05:31:19;2.80;99.90
59469;DHT22;45277;52.768;18.262;2023-02-19T05:32:50;2.80;99.90
59469;DHT22;45277;52.768;18.262;2023-02-19T05:34:22;2.70;99.90
59469;DHT22;45277;52.768;18.262;2023-02-19T05:35:54;2.70;99.90
59469;DHT22;45277;52.768;18.262;2023-02-19T05:37:25;2.70;99.90
59469;DHT22;45277;52.768;18.262;2023-02-19T05:38:57;2.70;99.90
59469;DHT22;45277;52.768;18.262;2023-02-19T05:40:29;2.70;99.90
59469;DHT22;45277;52.768;18.262;2023-02-19T05:42:00;2.70;99.90
59469;DHT22;45277;52.768;18.262;2023-02-19T05:43:32;2.70;99.90
59469;DHT22;45277;52.768;18.262;2023-02-19T05:45:04;2.70;99.90
59469;DHT22;45277;52.768;18.262;2023-02-19T05:46:35;2.70;99.90
59469;DHT22;45277;52.768;18.262;2023-02-19T05:48:07;2.70;99.90
59469;DHT22;45277;52.768;18.262;2023-02-19T05:49:39;2.70;99.90
59469;DHT22;45277;52.768;18.262;2023-02-19T05:51:13;2.80;99.90
59469;DHT22;45277;52.768;18.262;2023-02-19T05:52:45;2.80;99.90
59469;DHT22;45277;52.768;18.262;2023-02-19T05:54:16;2.90;99.90
59469;DHT22;45277;52.768;18.262;2023-02-19T05:55:48;2.80;99.90
59469;DHT22;45277;52.768;18.262;2023-02-19T05:57:19;2.90;99.90
59469;DHT22;45277;52.768;18.262;2023-02-19T05:58:52;2.90;99.90
59469;DHT22;45277;52.768;18.262;2023-02-19T06:00:24;2.80;99.90
59469;DHT22;45277;52.768;18.262;2023-02-19T06:01:57;2.80;99.90
59469;DHT22;45277;52.768;18.262;2023-02-19T06:03:29;2.80;99.90
59469;DHT22;45277;52.768;18.262;2023-02-19T06:05:00;2.80;99.90
59469;DHT22;45277;52.768;18.262;2023-02-19T06:06:31;2.90;99.90
59469;DHT22;45277;52.768;18.262;2023-02-19T06:08:03;2.90;99.90
59469;DHT22;45277;52.768;18.262;2023-02-19T06:09:35;2.80;99.90
59469;DHT22;45277;52.768;18.262;2023-02-19T06:11:06;2.80;99.90
59469;DHT22;45277;52.768;18.262;2023-02-19T06:12:38;2.80;99.90
59469;DHT22;45277;52.768;18.262;2023-02-19T06:14:11;2.80;99.90
59469;DHT22;45277;52.768;18.262;2023-02-19T06:15:43;2.80;99.90
59469;DHT22;45277;52.768;18.262;2023-02-19T06:17:15;2.80;99.90
59469;DHT22;45277;52.768;18.262;2023-02-19T06:18:47;2.80;99.90
59469;DHT22;45277;52.768;18.262;2023-02-19T06:20:18;2.80;99.90
59469;DHT22;45277;52.768;18.262;2023-02-19T06:21:50;2.80;99.90
59469;DHT22;45277;52.768;18.262;2023-02-19T06:23:21;2.80;99.90
59469;DHT22;45277;52.768;18.262;2023-02-19T06:24:53;2.80;99.90
59469;DHT22;45277;52.768;18.262;2023-02-19T06:26:24;2.80;99.90
59469;DHT22;45277;52.768;18.262;2023-02-19T06:27:56;2.80;99.90
59469;DHT22;45277;52.768;18.262;2023-02-19T06:29:27;2.90;99.90
59469;DHT22;45277;52.768;18.262;2023-02-19T06:30:59;2.80;99.90
59469;DHT22;45277;52.768;18.262;2023-02-19T06:32:30;2.90;99.90
59469;DHT22;45277;52.768;18.262;2023-02-19T06:34:05;2.90;99.90
59469;DHT22;45277;52.768;18.262;2023-02-19T06:35:36;2.80;99.90
59469;DHT22;45277;52.768;18.262;2023-02-19T06:37:08;2.80;99.90
59469;DHT22;45277;52.768;18.262;2023-02-19T06:38:39;2.90;99.90
59469;DHT22;45277;52.768;18.262;2023-02-19T06:40:11;2.90;99.90
59469;DHT22;45277;52.768;18.262;2023-02-19T06:41:42;2.90;99.90
59469;DHT22;45277;52.768;18.262;2023-02-19T06:43:14;2.90;99.90
59469;DHT22;45277;52.768;18.262;2023-02-19T06:44:45;2.90;99.90
59469;DHT22;45277;52.768;18.262;2023-02-19T06:46:17;3.00;99.90
59469;DHT22;45277;52.768;18.262;2023-02-19T06:47:48;2.90;99.90
59469;DHT22;45277;52.768;18.262;2023-02-19T06:49:20;2.90;99.90
59469;DHT22;45277;52.768;18.262;2023-02-19T06:50:52;3.00;99.90
59469;DHT22;45277;52.768;18.262;2023-02-19T06:52:24;3.00;99.90
59469;DHT22;45277;52.768;18.262;2023-02-19T06:53:55;3.00;99.90
59469;DHT22;45277;52.768;18.262;2023-02-19T06:55:27;3.00;99.90
59469;DHT22;45277;52.768;18.262;2023-02-19T06:56:59;3.00;99.90
59469;DHT22;45277;52.768;18.262;2023-02-19T06:58:31;3.00;99.90
59469;DHT22;45277;52.768;18.262;2023-02-19T07:00:02;3.10;99.90
59469;DHT22;45277;52.768;18.262;2023-02-19T07:01:35;3.10;99.90
59469;DHT22;45277;52.768;18.262;2023-02-19T07:03:08;3.10;99.90
59469;DHT22;45277;52.768;18.262;2023-02-19T07:04:39;3.10;99.90
59469;DHT22;45277;52.768;18.262;2023-02-19T07:06:11;3.10;99.90
59469;DHT22;45277;52.768;18.262;2023-02-19T07:07:44;3.10;99.90
59469;DHT22;45277;52.768;18.262;2023-02-19T07:09:16;3.10;99.90
59469;DHT22;45277;52.768;18.262;2023-02-19T07:10:55;3.10;99.90
59469;DHT22;45277;52.768;18.262;2023-02-19T07:12:27;3.10;99.90
59469;DHT22;45277;52.768;18.262;2023-02-19T07:14:00;3.20;99.90
59469;DHT22;45277;52.768;18.262;2023-02-19T07:15:32;3.20;99.90
59469;DHT22;45277;52.768;18.262;2023-02-19T07:17:03;3.20;99.90
59469;DHT22;45277;52.768;18.262;2023-02-19T07:18:35;3.20;99.90
59469;DHT22;45277;52.768;18.262;2023-02-19T07:20:07;3.20;99.90
59469;DHT22;45277;52.768;18.262;2023-02-19T07:21:38;3.20;99.90
59469;DHT22;45277;52.768;18.262;2023-02-19T07:23:10;3.20;99.90
59469;DHT22;45277;52.768;18.262;2023-02-19T07:24:42;3.30;99.90
59469;DHT22;45277;52.768;18.262;2023-02-19T07:26:15;3.30;99.90
59469;DHT22;45277;52.768;18.262;2023-02-19T07:27:47;3.30;99.90
59469;DHT22;45277;52.768;18.262;2023-02-19T07:29:18;3.30;99.90
59469;DHT22;45277;52.768;18.262;2023-02-19T07:30:50;3.30;99.90
59469;DHT22;45277;52.768;18.262;2023-02-19T07:32:22;3.30;99.90
59469;DHT22;45277;52.768;18.262;2023-02-19T07:33:54;3.30;99.90
59469;DHT22;45277;52.768;18.262;2023-02-19T07:35:26;3.40;99.90
59469;DHT22;45277;52.768;18.262;2023-02-19T07:36:57;3.40;99.90
59469;DHT22;45277;52.768;18.262;2023-02-19T07:38:29;3.40;99.90
59469;DHT22;45277;52.768;18.262;2023-02-19T07:40:01;3.50;99.90
59469;DHT22;45277;52.768;18.262;2023-02-19T07:41:32;3.50;99.90
59469;DHT22;45277;52.768;18.262;2023-02-19T07:43:04;3.50;99.90
59469;DHT22;45277;52.768;18.262;2023-02-19T07:44:36;3.60;99.90
59469;DHT22;45277;52.768;18.262;2023-02-19T07:46:09;3.60;99.90
59469;DHT22;45277;52.768;18.262;2023-02-19T07:47:42;3.60;99.90
59469;DHT22;45277;52.768;18.262;2023-02-19T07:49:13;3.70;99.90
59469;DHT22;45277;52.768;18.262;2023-02-19T07:50:55;3.70;99.90
59469;DHT22;45277;52.768;18.262;2023-02-19T07:52:27;3.80;99.90
59469;DHT22;45277;52.768;18.262;2023-02-19T07:53:59;3.80;99.90
59469;DHT22;45277;52.768;18.262;2023-02-19T07:55:33;3.80;99.90
59469;DHT22;45277;52.768;18.262;2023-02-19T07:57:04;3.80;99.90
59469;DHT22;45277;52.768;18.262;2023-02-19T07:58:36;3.90;99.90
59469;DHT22;45277;52.768;18.262;2023-02-19T08:00:08;3.90;99.90
59469;DHT22;45277;52.768;18.262;2023-02-19T08:01:39;4.00;99.90
59469;DHT22;45277;52.768;18.262;2023-02-19T08:03:30;4.00;99.90
59469;DHT22;45277;52.768;18.262;2023-02-19T08:05:01;4.00;99.90
59469;DHT22;45277;52.768;18.262;2023-02-19T08:06:33;4.10;99.90
59469;DHT22;45277;52.768;18.262;2023-02-19T08:08:10;4.10;99.90
59469;DHT22;45277;52.768;18.262;2023-02-19T08:09:41;4.10;99.90
59469;DHT22;45277;52.768;18.262;2023-02-19T08:11:13;4.10;99.90
59469;DHT22;45277;52.768;18.262;2023-02-19T08:13:03;4.10;99.90
59469;DHT22;45277;52.768;18.262;2023-02-19T08:14:50;4.10;99.90
59469;DHT22;45277;52.768;18.262;2023-02-19T08:16:21;4.10;99.90
59469;DHT22;45277;52.768;18.262;2023-02-19T08:17:54;4.10;99.90
59469;DHT22;45277;52.768;18.262;2023-02-19T08:19:25;4.10;99.90
59469;DHT22;45277;52.768;18.262;2023-02-19T08:20:58;4.20;99.90
59469;DHT22;45277;52.768;18.262;2023-02-19T08:22:30;4.30;99.90
59469;DHT22;45277;52.768;18.262;2023-02-19T08:24:01;4.30;99.90
59469;DHT22;45277;52.768;18.262;2023-02-19T08:25:33;4.30;99.90
59469;DHT22;45277;52.768;18.262;2023-02-19T08:27:05;4.40;99.90
59469;DHT22;45277;52.768;18.262;2023-02-19T08:28:37;4.40;99.90
59469;DHT22;45277;52.768;18.262;2023-02-19T08:30:08;4.40;99.90
59469;DHT22;45277;52.768;18.262;2023-02-19T08:31:41;4.40;99.90
59469;DHT22;45277;52.768;18.262;2023-02-19T08:33:15;4.40;99.90
59469;DHT22;45277;52.768;18.262;2023-02-19T08:34:47;4.40;99.90
59469;DHT22;45277;52.768;18.262;2023-02-19T08:36:19;4.50;99.90
59469;DHT22;45277;52.768;18.262;2023-02-19T08:37:53;4.50;99.90
59469;DHT22;45277;52.768;18.262;2023-02-19T08:39:25;4.60;99.90
59469;DHT22;45277;52.768;18.262;2023-02-19T08:40:57;4.60;99.90
59469;DHT22;45277;52.768;18.262;2023-02-19T08:42:28;4.70;99.90
59469;DHT22;45277;52.768;18.262;2023-02-19T08:44:00;4.80;99.90
59469;DHT22;45277;52.768;18.262;2023-02-19T08:45:32;4.70;99.90
59469;DHT22;45277;52.768;18.262;2023-02-19T08:47:03;4.80;99.90
59469;DHT22;45277;52.768;18.262;2023-02-19T08:48:36;4.80;99.90
59469;DHT22;45277;52.768;18.262;2023-02-19T08:50:08;4.90;99.90
59469;DHT22;45277;52.768;18.262;2023-02-19T08:51:40;4.80;99.90
59469;DHT22;45277;52.768;18.262;2023-02-19T08:53:12;4.70;99.90
59469;DHT22;45277;52.768;18.262;2023-02-19T08:54:43;4.70;99.90
59469;DHT22;45277;52.768;18.262;2023-02-19T08:56:16;4.70;99.90
59469;DHT22;45277;52.768;18.262;2023-02-19T08:57:47;4.60;99.90
59469;DHT22;45277;52.768;18.262;2023-02-19T08:59:19;4.60;99.90
59469;DHT22;45277;52.768;18.262;2023-02-19T09:00:51;4.60;99.90
59469;DHT22;45277;52.768;18.262;2023-02-19T09:02:24;4.70;99.90
59469;DHT22;45277;52.768;18.262;2023-02-19T09:03:56;4.70;99.90
59469;DHT22;45277;52.768;18.262;2023-02-19T09:05:27;4.60;99.90
59469;DHT22;45277;52.768;18.262;2023-02-19T09:06:58;4.70;99.90
59469;DHT22;45277;52.768;18.262;2023-02-19T09:08:30;4.70;99.90
59469;DHT22;45277;52.768;18.262;2023-02-19T09:10:03;4.70;99.90
59469;DHT22;45277;52.768;18.262;2023-02-19T09:11:38;4.70;99.90
59469;DHT22;45277;52.768;18.262;2023-02-19T09:13:10;4.80;99.90
59469;DHT22;45277;52.768;18.262;2023-02-19T09:14:41;4.90;99.90
59469;DHT22;45277;52.768;18.262;2023-02-19T09:16:12;4.90;99.90
59469;DHT22;45277;52.768;18.262;2023-02-19T09:17:44;4.90;99.90
59469;DHT22;45277;52.768;18.262;2023-02-19T09:19:16;5.00;99.90
59469;DHT22;45277;52.768;18.262;2023-02-19T09:20:47;5.10;99.90
59469;DHT22;45277;52.768;18.262;2023-02-19T09:22:19;5.20;99.90
59469;DHT22;45277;52.768;18.262;2023-02-19T09:23:50;5.20;99.90
59469;DHT22;45277;52.768;18.262;2023-02-19T09:25:39;5.30;99.90
59469;DHT22;45277;52.768;18.262;2023-02-19T09:27:15;5.30;99.90
59469;DHT22;45277;52.768;18.262;2023-02-19T09:28:47;5.40;99.90
59469;DHT22;45277;52.768;18.262;2023-02-19T09:30:19;5.50;99.90
59469;DHT22;45277;52.768;18.262;2023-02-19T09:31:50;5.40;99.90
59469;DHT22;45277;52.768;18.262;2023-02-19T09:33:25;5.30;99.90
59469;DHT22;45277;52.768;18.262;2023-02-19T09:34:57;5.40;99.90
59469;DHT22;45277;52.768;18.262;2023-02-19T09:36:29;5.30;99.90
59469;DHT22;45277;52.768;18.262;2023-02-19T09:38:00;5.30;99.90
59469;DHT22;45277;52.768;18.262;2023-02-19T09:39:34;5.30;99.90
59469;DHT22;45277;52.768;18.262;2023-02-19T09:41:12;5.40;99.90
59469;DHT22;45277;52.768;18.262;2023-02-19T09:42:45;5.40;99.90
59469;DHT22;45277;52.768;18.262;2023-02-19T09:44:33;5.50;99.90
59469;DHT22;45277;52.768;18.262;2023-02-19T09:46:28;5.60;99.90
59469;DHT22;45277;52.768;18.262;2023-02-19T09:48:01;5.50;99.90
59469;DHT22;45277;52.768;18.262;2023-02-19T09:49:38;5.50;99.90
59469;DHT22;45277;52.768;18.262;2023-02-19T09:51:11;5.40;99.90
59469;DHT22;45277;52.768;18.262;2023-02-19T09:52:54;5.40;99.90
59469;DHT22;45277;52.768;18.262;2023-02-19T09:54:29;5.50;99.90
59469;DHT22;45277;52.768;18.262;2023-02-19T09:56:03;5.40;99.90
59469;DHT22;45277;52.768;18.262;2023-02-19T09:57:35;5.50;99.90
59469;DHT22;45277;52.768;18.262;2023-02-19T09:59:26;5.50;99.90
59469;DHT22;45277;52.768;18.262;2023-02-19T10:01:01;5.50;99.90
59469;DHT22;45277;52.768;18.262;2023-02-19T10:02:33;5.60;99.90
59469;DHT22;45277;52.768;18.262;2023-02-19T10:04:05;5.70;99.90
59469;DHT22;45277;52.768;18.262;2023-02-19T10:05:39;5.70;99.90
59469;DHT22;45277;52.768;18.262;2023-02-19T10:07:16;5.70;99.90
59469;DHT22;45277;52.768;18.262;2023-02-19T10:08:51;5.70;99.90
59469;DHT22;45277;52.768;18.262;2023-02-19T10:10:32;5.80;99.90
59469;DHT22;45277;52.768;18.262;2023-02-19T10:12:14;5.80;99.90
59469;DHT22;45277;52.768;18.262;2023-02-19T10:13:56;5.90;99.90
59469;DHT22;45277;52.768;18.262;2023-02-19T10:15:57;5.90;99.90
59469;DHT22;45277;52.768;18.262;2023-02-19T10:17:31;6.00;99.90
59469;DHT22;45277;52.768;18.262;2023-02-19T10:19:11;6.10;99.90
59469;DHT22;45277;52.768;18.262;2023-02-19T10:20:44;6.10;99.90